Time;durP1;ratioP1;P1;durP2;ratioP2;P2;SDS_P1;SDS_P2;PMS_P1;PMS_P2;Temp;Humidity;BMP_temperature;BMP_pressure;BME280_temperature;BME280_humidity;BME280_pressure;Samples;Min_cycle;Max_cycle;Signal;HPM_P1;HPM_P2
2022/01/21 00:01:22;;;;;;;14.88;2.75;;;3.10;99.90;;;;;;5018272;28;20385;-88
2022/01/21 00:03:49;;;;;;;14.50;3.30;;;2.50;99.90;;;;;;5022815;28;20041;-87
2022/01/21 00:06:14;;;;;;;15.10;2.78;;;2.60;99.90;;;;;;5029491;28;20045;-88
2022/01/21 00:08:42;;;;;;;15.15;2.80;;;2.70;99.90;;;;;;4999805;28;20288;-88
2022/01/21 00:11:10;;;;;;;18.55;2.92;;;2.70;99.90;;;;;;5005715;28;20036;-88
2022/01/21 00:13:36;;;;;;;17.92;3.22;;;4.70;99.90;;;;;;5016674;28;20517;-88
2022/01/21 00:16:05;;;;;;;17.00;3.17;;;3.90;99.90;;;;;;5010538;28;20486;-88
2022/01/21 00:18:33;;;;;;;16.80;3.15;;;3.00;99.90;;;;;;5032620;28;20069;-89
2022/01/21 00:31:56;;;;;;;11.25;2.03;;;3.10;99.90;;;;;;5011642;28;20138;-88
2022/01/21 00:34:22;;;;;;;10.32;2.20;;;3.50;99.90;;;;;;4998609;28;20497;-89
2022/01/21 00:36:47;;;;;;;6.55;1.80;;;3.10;99.90;;;;;;5004632;28;20037;-88
2022/01/21 00:39:13;;;;;;;10.63;2.10;;;4.40;99.90;;;;;;5014475;28;20498;-89
2022/01/21 00:41:52;;;;;;;9.18;1.70;;;2.90;99.90;;;;;;5019270;28;20037;-88
2022/01/21 00:44:18;;;;;;;10.25;2.13;;;2.70;99.90;;;;;;5018600;28;20524;-89
2022/01/21 00:46:43;;;;;;;14.10;2.22;;;2.80;99.90;;;;;;5021663;28;20029;-88
2022/01/21 00:49:09;;;;;;;8.25;1.70;;;2.70;99.90;;;;;;5009427;28;20345;-88
2022/01/21 00:51:35;;;;;;;8.57;1.55;;;2.70;99.90;;;;;;5040250;28;20068;-87
2022/01/21 00:54:00;;;;;;;8.80;1.70;;;3.10;99.90;;;;;;5009127;28;20080;-90
2022/01/21 00:56:26;;;;;;;6.78;1.95;;;2.60;99.90;;;;;;5042462;28;20048;-88
2022/01/21 00:58:52;;;;;;;11.18;1.90;;;3.30;99.90;;;;;;5004231;28;20041;-88
2022/01/21 01:01:17;;;;;;;8.32;1.60;;;4.10;99.90;;;;;;5000371;28;20025;-88
2022/01/21 01:03:43;;;;;;;10.95;2.20;;;2.90;99.90;;;;;;5008094;28;20037;-88
2022/01/21 01:06:09;;;;;;;7.78;1.85;;;2.50;99.90;;;;;;5024271;28;20033;-88
2022/01/21 01:08:35;;;;;;;11.75;1.98;;;2.50;99.90;;;;;;5013693;28;20100;-88
2022/01/21 01:11:17;;;;;;;14.63;2.25;;;3.90;99.90;;;;;;5004662;28;20037;-89
2022/01/21 01:21:47;;;;;;;10.68;2.05;;;2.60;99.90;;;;;;5036385;28;20506;-88
2022/01/21 01:29:41;;;;;;;13.63;2.30;;;2.50;99.90;;;;;;5022146;28;20048;-89
2022/01/21 01:32:07;;;;;;;14.65;2.20;;;2.50;99.90;;;;;;5004964;28;20032;-88
2022/01/21 01:34:33;;;;;;;15.75;2.45;;;2.50;99.90;;;;;;5024274;28;20493;-89
2022/01/21 01:37:04;;;;;;;12.90;2.50;;;2.50;99.90;;;;;;5015937;28;20048;-88
2022/01/21 01:39:38;;;;;;;14.18;2.30;;;3.70;99.90;;;;;;5029270;28;20048;-89
2022/01/21 01:50:01;;;;;;;13.30;2.33;;;3.30;99.90;;;;;;5019030;28;20037;-89
2022/01/21 01:52:27;;;;;;;11.43;2.25;;;;;;;;;;5021297;28;20049;-88
2022/01/21 01:54:55;;;;;;;13.18;2.20;;;2.20;99.90;;;;;;5018859;28;20037;-88
2022/01/21 01:57:22;;;;;;;14.38;2.20;;;3.00;99.90;;;;;;5027743;28;20046;-88
2022/01/21 01:59:48;;;;;;;15.95;2.30;;;2.30;99.90;;;;;;5022979;28;20048;-89
2022/01/21 02:02:16;;;;;;;13.43;2.25;;;2.30;99.90;;;;;;5020599;28;20096;-87
2022/01/21 02:04:44;;;;;;;10.90;2.53;;;2.40;99.90;;;;;;5022823;28;20041;-88
2022/01/21 02:07:11;;;;;;;13.68;2.60;;;2.50;99.90;;;;;;5026243;28;20470;-88
2022/01/21 02:09:37;;;;;;;12.18;2.90;;;2.50;99.90;;;;;;5004311;28;20103;-88
2022/01/21 02:12:04;;;;;;;12.70;2.00;;;3.30;99.90;;;;;;5013391;28;20037;-89
2022/01/21 02:14:36;;;;;;;5.20;1.63;;;2.30;99.90;;;;;;5022327;28;20045;-88
2022/01/21 02:22:27;;;;;;;11.95;1.75;;;2.10;99.90;;;;;;5023429;28;20498;-88
2022/01/21 02:24:57;;;;;;;8.38;1.80;;;2.10;99.90;;;;;;5005895;28;20052;-89
2022/01/21 02:27:23;;;;;;;12.27;2.00;;;2.10;99.90;;;;;;5013397;28;20041;-89
2022/01/21 02:29:59;;;;;;;15.13;2.28;;;2.10;99.90;;;;;;5002469;28;20083;-88
2022/01/21 02:32:25;;;;;;;9.52;1.95;;;3.10;99.90;;;;;;5013268;28;20037;-88
2022/01/21 02:34:50;;;;;;;11.02;1.80;;;3.30;99.90;;;;;;5024294;28;20041;-88
2022/01/21 02:37:20;;;;;;;12.23;1.80;;;2.40;99.90;;;;;;5008630;28;20043;-89
2022/01/21 02:39:46;;;;;;;8.23;1.90;;;;;;;;;;5028356;28;20087;-89
2022/01/21 02:42:12;;;;;;;9.48;1.67;;;2.10;99.90;;;;;;5008941;28;20489;-89
2022/01/21 02:44:39;;;;;;;8.07;1.70;;;3.10;99.90;;;;;;5025572;28;20116;-89
2022/01/21 02:47:06;;;;;;;9.18;1.73;;;2.10;99.90;;;;;;5022045;28;20101;-88
2022/01/21 02:49:32;;;;;;;9.45;2.15;;;2.20;99.90;;;;;;5006629;28;20084;-88
2022/01/21 02:52:01;;;;;;;9.38;1.70;;;2.20;99.90;;;;;;5030136;28;20044;-88
2022/01/21 02:54:30;;;;;;;10.45;2.53;;;2.30;99.90;;;;;;5021912;28;20083;-89
2022/01/21 02:57:00;;;;;;;13.57;1.95;;;3.60;99.90;;;;;;5021593;28;20038;-88
2022/01/21 02:59:26;;;;;;;12.50;1.95;;;2.30;99.90;;;;;;5020604;28;20116;-89
2022/01/21 03:01:52;;;;;;;13.77;2.42;;;2.70;99.90;;;;;;5011438;28;20375;-88
2022/01/21 03:04:30;;;;;;;15.98;2.10;;;2.40;99.90;;;;;;4996987;28;20029;-89
2022/01/21 03:06:56;;;;;;;11.25;2.10;;;4.00;99.90;;;;;;5025650;28;20037;-88
2022/01/21 03:09:22;;;;;;;11.13;2.10;;;4.00;99.90;;;;;;5038949;28;20044;-89
2022/01/21 03:11:48;;;;;;;15.07;2.78;;;2.50;99.90;;;;;;5005585;28;20048;-89
2022/01/21 03:14:13;;;;;;;15.25;2.33;;;2.50;99.90;;;;;;4997107;28;20041;-88
2022/01/21 03:16:39;;;;;;;13.50;2.40;;;2.50;99.90;;;;;;5011456;28;20518;-88
2022/01/21 03:19:05;;;;;;;13.43;1.98;;;2.50;99.90;;;;;;5022827;28;20050;-89
2022/01/21 03:21:30;;;;;;;11.23;2.10;;;4.20;99.90;;;;;;4985654;28;20041;-89
2022/01/21 03:23:57;;;;;;;13.90;2.13;;;4.40;99.90;;;;;;5007600;28;20036;-88
2022/01/21 03:26:25;;;;;;;10.52;2.00;;;2.50;99.90;;;;;;5002232;28;20125;-89
2022/01/21 03:28:54;;;;;;;13.10;2.28;;;3.00;99.90;;;;;;5013229;28;20033;-90
2022/01/21 03:31:20;;;;;;;11.73;2.72;;;3.60;99.90;;;;;;5044841;28;20036;-89
2022/01/21 03:33:46;;;;;;;12.63;2.20;;;2.40;99.90;;;;;;5022641;28;20359;-90
2022/01/21 03:36:12;;;;;;;12.23;2.17;;;3.90;99.90;;;;;;5021447;28;20489;-88
2022/01/21 03:38:39;;;;;;;9.82;2.33;;;2.40;99.90;;;;;;4995822;28;20084;-89
2022/01/21 03:41:05;;;;;;;11.82;2.40;;;3.90;99.90;;;;;;5009606;28;20037;-89
2022/01/21 03:43:32;;;;;;;17.50;2.60;;;4.20;99.90;;;;;;5006470;28;20323;-88
2022/01/21 03:45:58;;;;;;;10.85;2.28;;;2.20;99.90;;;;;;5009833;28;20041;-88
2022/01/21 03:48:24;;;;;;;10.32;2.50;;;2.20;99.90;;;;;;5014088;28;20565;-88
2022/01/21 03:50:50;;;;;;;13.27;2.80;;;2.20;99.90;;;;;;5007758;28;20128;-89
2022/01/21 03:53:16;;;;;;;13.75;2.50;;;2.20;99.90;;;;;;5027307;28;20477;-89
2022/01/21 03:55:42;;;;;;;13.18;2.33;;;3.70;99.90;;;;;;5009614;28;20098;-88
2022/01/21 03:58:10;;;;;;;14.00;2.53;;;3.00;99.90;;;;;;5006054;28;20294;-88
2022/01/21 04:00:51;;;;;;;13.30;2.60;;;2.10;99.90;;;;;;4990920;28;20039;-89
2022/01/21 04:03:17;;;;;;;11.63;2.33;;;2.10;99.90;;;;;;5028162;28;20139;-89
2022/01/21 04:05:43;;;;;;;9.93;1.90;;;3.20;99.90;;;;;;5032513;28;20053;-88
2022/01/21 04:08:10;;;;;;;12.35;2.28;;;2.20;99.90;;;;;;5017804;28;20034;-88
2022/01/21 04:10:41;;;;;;;11.60;2.22;;;3.20;99.90;;;;;;5011825;28;20069;-88
2022/01/21 04:13:13;;;;;;;9.05;1.95;;;2.40;99.90;;;;;;5030498;28;20128;-88
2022/01/21 04:15:39;;;;;;;9.23;1.80;;;2.50;99.90;;;;;;4996031;28;20033;-89
2022/01/21 04:18:05;;;;;;;11.80;1.98;;;2.50;99.90;;;;;;5008249;28;20033;-88
2022/01/21 04:20:31;;;;;;;13.20;1.98;;;2.50;99.90;;;;;;5000558;28;20509;-88
2022/01/21 04:22:57;;;;;;;8.35;2.00;;;2.50;99.90;;;;;;5009382;28;20080;-88
2022/01/21 04:25:23;;;;;;;9.30;1.83;;;3.90;99.90;;;;;;5022338;28;20041;-88
2022/01/21 04:27:49;;;;;;;14.23;2.10;;;2.40;99.90;;;;;;5007488;28;20041;-88
2022/01/21 04:30:15;;;;;;;11.10;2.38;;;2.80;99.90;;;;;;5037939;28;20033;-88
2022/01/21 04:32:41;;;;;;;8.80;1.40;;;2.30;99.90;;;;;;5020714;28;20041;-88
2022/01/21 04:35:07;;;;;;;12.25;2.03;;;2.20;99.90;;;;;;5037696;28;20045;-88
2022/01/21 04:37:33;;;;;;;9.43;1.70;;;2.20;99.90;;;;;;5026563;28;20475;-88
2022/01/21 04:40:08;;;;;;;10.98;1.77;;;3.30;99.90;;;;;;5042553;28;20068;-89
2022/01/21 04:48:03;;;;;;;7.68;1.90;;;2.10;99.90;;;;;;5023640;28;20049;-89
2022/01/21 04:50:38;;;;;;;12.45;2.10;;;2.00;99.90;;;;;;5012573;28;20045;-88
2022/01/21 04:53:04;;;;;;;10.07;1.80;;;;;;;;;;5017929;28;20508;-89
2022/01/21 04:55:30;;;;;;;12.90;1.88;;;2.00;99.90;;;;;;5023732;28;20601;-89
2022/01/21 04:57:55;;;;;;;8.45;1.88;;;2.00;99.90;;;;;;5009936;28;20044;-88
2022/01/21 05:00:21;;;;;;;11.38;2.20;;;2.50;99.90;;;;;;5024840;28;20150;-88
2022/01/21 05:02:47;;;;;;;10.82;1.90;;;3.10;99.90;;;;;;4999225;28;20385;-88
2022/01/21 05:05:12;;;;;;;9.30;2.00;;;3.10;99.90;;;;;;5003653;28;20040;-88
2022/01/21 05:07:40;;;;;;;11.82;2.58;;;2.80;99.90;;;;;;5007937;28;20116;-88
2022/01/21 05:10:06;;;;;;;13.68;1.90;;;2.10;99.90;;;;;;5035909;28;20563;-88
2022/01/21 05:12:32;;;;;;;14.63;2.65;;;2.10;99.90;;;;;;5003811;28;20063;-88
2022/01/21 05:17:25;;;;;;;16.48;2.20;;;2.10;99.90;;;;;;5027100;28;20041;-89
2022/01/21 05:19:52;;;;;;;14.93;2.58;;;2.10;99.90;;;;;;5048139;28;20485;-88
2022/01/21 05:22:18;;;;;;;10.73;2.20;;;3.90;99.90;;;;;;5025414;28;20255;-89
2022/01/21 05:24:43;;;;;;;15.10;2.75;;;2.10;99.90;;;;;;4998518;28;20276;-88
2022/01/21 05:27:11;;;;;;;16.08;3.03;;;2.60;99.90;;;;;;5016494;28;20117;-89
2022/01/21 05:29:37;;;;;;;17.95;3.08;;;3.00;99.90;;;;;;5007939;28;20054;-89
2022/01/21 05:32:05;;;;;;;13.02;2.42;;;3.60;99.90;;;;;;5030675;28;21379;-88
2022/01/21 05:34:31;;;;;;;12.63;1.90;;;2.30;99.90;;;;;;5042214;28;20037;-88
2022/01/21 05:36:57;;;;;;;18.98;2.67;;;2.30;99.90;;;;;;5007882;28;20184;-88
2022/01/21 05:39:23;;;;;;;17.90;2.53;;;2.40;99.90;;;;;;5038031;28;20529;-89
2022/01/21 05:41:51;;;;;;;10.63;2.30;;;2.40;99.90;;;;;;5009533;28;20550;-88
2022/01/21 05:46:57;;;;;;;14.63;2.80;;;4.50;99.90;;;;;;5035115;28;20422;-88
2022/01/21 05:49:25;;;;;;;15.63;3.28;;;2.80;99.90;;;;;;5028437;28;20245;-88
2022/01/21 05:54:36;;;;;;;9.27;2.08;;;2.70;99.90;;;;;;5038763;28;20608;-87
2022/01/21 05:57:06;;;;;;;18.73;2.63;;;4.20;99.90;;;;;;5021272;28;20124;-87
2022/01/21 05:59:33;;;;;;;13.27;2.95;;;2.80;99.90;;;;;;4987851;28;20041;-88
2022/01/21 06:01:59;;;;;;;16.30;2.47;;;3.00;99.90;;;;;;5021474;28;20033;-88
2022/01/21 06:04:25;;;;;;;14.27;2.80;;;;;;;;;;5006830;28;20052;-88
2022/01/21 06:06:51;;;;;;;17.45;2.30;;;4.70;99.90;;;;;;5033395;28;20040;-88
2022/01/21 06:09:16;;;;;;;13.48;2.53;;;4.80;99.90;;;;;;5007259;28;20033;-89
2022/01/21 06:11:42;;;;;;;11.80;2.17;;;3.00;99.90;;;;;;5007297;28;20040;-88
2022/01/21 06:14:08;;;;;;;11.95;2.00;;;4.90;99.90;;;;;;4988793;28;20033;-89
2022/01/21 06:16:34;;;;;;;13.70;2.38;;;2.90;99.90;;;;;;5016788;28;20406;-88
2022/01/21 06:19:00;;;;;;;14.43;2.22;;;3.00;99.90;;;;;;4995898;28;20134;-88
2022/01/21 06:21:26;;;;;;;13.57;2.65;;;2.60;99.90;;;;;;5016457;28;20189;-88
2022/01/21 06:23:52;;;;;;;14.50;2.30;;;2.90;99.90;;;;;;5013314;28;20040;-89
2022/01/21 06:26:18;;;;;;;15.00;2.20;;;4.90;99.90;;;;;;5011847;28;20575;-89
2022/01/21 06:28:44;;;;;;;13.40;2.25;;;2.90;99.90;;;;;;5037485;28;20424;-88
2022/01/21 06:31:10;;;;;;;11.93;2.63;;;2.90;99.90;;;;;;5006781;28;20040;-86
2022/01/21 06:33:35;;;;;;;10.88;2.35;;;3.90;99.90;;;;;;5003370;28;20051;-87
2022/01/21 06:36:01;;;;;;;15.93;2.80;;;4.00;99.90;;;;;;5005626;28;20047;-88
2022/01/21 06:38:28;;;;;;;16.83;2.45;;;;;;;;;;5028285;28;20042;-88
2022/01/21 06:40:54;;;;;;;15.93;2.47;;;3.00;99.90;;;;;;5032701;28;20049;-88
2022/01/21 06:43:20;;;;;;;11.70;1.90;;;3.00;99.90;;;;;;5030680;28;20030;-88
2022/01/21 06:45:47;;;;;;;12.63;2.58;;;4.90;99.90;;;;;;5013272;28;20103;-89
2022/01/21 06:48:13;;;;;;;10.18;2.25;;;3.10;99.90;;;;;;5009380;28;20048;-88
2022/01/21 06:50:41;;;;;;;12.18;2.50;;;4.50;99.90;;;;;;5012144;28;20025;-87
2022/01/21 06:53:07;;;;;;;12.38;2.17;;;3.20;99.90;;;;;;5029498;28;20041;-88
2022/01/21 06:55:33;;;;;;;15.48;2.63;;;3.20;99.90;;;;;;5011401;28;20068;-88
2022/01/21 06:57:58;;;;;;;15.95;2.55;;;3.10;99.90;;;;;;5005304;28;20069;-88
2022/01/21 07:00:24;;;;;;;10.88;1.80;;;3.20;99.90;;;;;;5022212;28;20045;-88
2022/01/21 07:02:52;;;;;;;11.48;2.13;;;4.10;99.90;;;;;;5026707;28;20486;-89
2022/01/21 07:05:19;;;;;;;15.02;2.67;;;3.20;99.90;;;;;;5013448;28;20048;-90
2022/01/21 07:07:45;;;;;;;13.52;2.80;;;3.10;99.90;;;;;;5015659;28;20449;-88
2022/01/21 07:10:13;;;;;;;12.68;2.40;;;3.10;99.90;;;;;;5009360;28;20498;-86
2022/01/21 07:12:40;;;;;;;8.82;2.33;;;4.90;99.90;;;;;;5002049;28;20045;-90
2022/01/21 07:15:07;;;;;;;18.10;2.45;;;3.10;99.90;;;;;;5029083;28;20041;-90
2022/01/21 07:17:34;;;;;;;15.45;2.45;;;3.00;99.90;;;;;;5028879;28;20050;-88
2022/01/21 07:20:00;;;;;;;11.13;2.45;;;3.00;99.90;;;;;;5018028;28;20108;-87
2022/01/21 07:22:25;;;;;;;11.02;2.60;;;3.00;99.90;;;;;;5020371;28;20496;-88
2022/01/21 07:24:51;;;;;;;13.18;2.35;;;3.30;99.90;;;;;;5010175;28;20429;-90
2022/01/21 07:27:17;;;;;;;12.95;2.50;;;3.00;99.90;;;;;;5035601;28;20032;-88
2022/01/21 07:29:43;;;;;;;8.48;2.33;;;2.90;99.90;;;;;;5019715;28;20036;-88
2022/01/21 07:32:09;;;;;;;15.07;2.78;;;3.30;99.90;;;;;;5030810;28;20041;-88
2022/01/21 07:34:35;;;;;;;10.43;2.45;;;2.90;99.90;;;;;;5018012;28;20048;-88
2022/01/21 07:37:01;;;;;;;11.80;2.25;;;2.20;99.90;;;;;;5036123;28;20041;-88
2022/01/21 07:39:26;;;;;;;13.05;2.17;;;3.90;99.90;;;;;;5005326;28;20041;-91
2022/01/21 07:41:52;;;;;;;11.02;2.05;;;3.70;99.90;;;;;;5014035;28;20622;-88
2022/01/21 07:44:19;;;;;;;11.30;2.35;;;3.50;99.90;;;;;;5027241;28;20041;-88
2022/01/21 07:46:46;;;;;;;11.70;2.03;;;2.70;99.90;;;;;;5024387;28;20072;-90
2022/01/21 07:49:14;;;;;;;14.98;2.47;;;2.60;99.90;;;;;;5039749;28;20516;-89
2022/01/21 07:51:41;;;;;;;12.27;2.08;;;2.60;99.90;;;;;;5008194;28;20041;-88
2022/01/21 07:54:07;;;;;;;17.17;2.50;;;2.60;99.90;;;;;;5019663;28;20116;-89
2022/01/21 07:56:34;;;;;;;15.00;2.42;;;4.20;99.90;;;;;;5019630;28;20044;-89
2022/01/21 07:59:05;;;;;;;19.88;2.83;;;2.60;99.90;;;;;;5012496;28;20029;-90
2022/01/21 08:01:31;;;;;;;15.05;3.10;;;2.60;99.90;;;;;;5024572;28;20067;-89
2022/01/21 08:03:57;;;;;;;16.95;2.83;;;2.60;99.90;;;;;;5012435;28;20040;-88
2022/01/21 08:06:23;;;;;;;21.85;4.05;;;2.60;99.90;;;;;;5029556;28;20040;-90
2022/01/21 08:08:49;;;;;;;18.95;2.92;;;2.90;99.90;;;;;;5027037;28;20468;-90
2022/01/21 08:11:15;;;;;;;18.63;3.40;;;2.60;99.90;;;;;;5027153;28;20045;-89
2022/01/21 08:13:40;;;;;;;15.65;2.45;;;2.60;99.90;;;;;;5018541;28;20041;-87
2022/01/21 08:16:06;;;;;;;11.98;2.47;;;3.20;99.90;;;;;;5026784;28;20862;-90
2022/01/21 08:18:32;;;;;;;19.25;3.10;;;3.50;99.90;;;;;;5026966;28;20034;-89
2022/01/21 08:20:58;;;;;;;13.40;2.60;;;2.80;99.90;;;;;;5006637;28;20091;-87
2022/01/21 08:23:23;;;;;;;15.82;2.60;;;4.40;99.90;;;;;;5028872;28;20125;-89
2022/01/21 08:25:49;;;;;;;15.48;2.53;;;4.20;99.90;;;;;;5013030;28;20048;-89
2022/01/21 08:28:15;;;;;;;19.88;3.35;;;2.60;99.90;;;;;;5013914;28;20099;-89
2022/01/21 08:30:41;;;;;;;14.00;3.03;;;2.70;99.90;;;;;;5005734;28;20045;-91
2022/01/21 08:33:07;;;;;;;13.02;2.85;;;2.70;99.90;;;;;;5022942;28;20391;-91
2022/01/21 08:35:33;;;;;;;14.18;2.50;;;2.80;99.90;;;;;;4995317;28;20045;-89
2022/01/21 08:38:00;;;;;;;14.02;2.95;;;2.80;99.90;;;;;;5026701;28;20109;-91
2022/01/21 08:40:26;;;;;;;18.67;3.53;;;2.80;99.90;;;;;;5028262;28;20049;-89
2022/01/21 08:42:52;;;;;;;15.73;3.03;;;2.90;99.90;;;;;;5040106;28;20094;-89
2022/01/21 08:45:19;;;;;;;17.77;3.13;;;2.90;99.90;;;;;;5029770;28;20481;-89
2022/01/21 08:47:45;;;;;;;18.85;3.53;;;3.10;99.90;;;;;;5025672;28;20048;-92
2022/01/21 08:50:16;;;;;;;18.50;3.40;;;4.40;99.90;;;;;;5028970;28;20041;-90
2022/01/21 08:52:42;;;;;;;17.40;2.72;;;3.20;99.90;;;;;;5031548;28;20037;-90
2022/01/21 08:55:12;;;;;;;21.42;3.28;;;3.20;99.90;;;;;;5007857;28;20102;-91
2022/01/21 08:57:42;;;;;;;18.25;3.13;;;3.30;99.90;;;;;;5030215;28;20503;-91
2022/01/21 09:00:19;;;;;;;17.73;3.40;;;3.40;99.90;;;;;;5021576;28;20044;-89
2022/01/21 09:02:46;;;;;;;22.63;3.53;;;3.40;99.90;;;;;;5032355;28;20041;-91
2022/01/21 09:05:12;;;;;;;19.33;3.30;;;3.40;99.90;;;;;;5020350;28;20132;-89
2022/01/21 09:07:38;;;;;;;15.88;2.92;;;3.50;99.90;;;;;;5004387;28;20125;-91
2022/01/21 09:10:05;;;;;;;22.15;4.28;;;3.50;99.90;;;;;;5025145;28;20041;-90
2022/01/21 09:12:31;;;;;;;24.60;3.72;;;3.60;99.90;;;;;;5007989;28;20053;-91
2022/01/21 09:14:57;;;;;;;18.20;2.97;;;3.60;99.90;;;;;;5009334;28;20490;-93
2022/01/21 09:17:23;;;;;;;20.95;3.70;;;4.60;99.90;;;;;;5014845;28;20051;-93
2022/01/21 09:19:49;;;;;;;17.98;3.22;;;4.90;99.90;;;;;;5046794;28;20073;-92
2022/01/21 09:22:15;;;;;;;19.40;3.72;;;;;;;;;;5003831;28;20033;-94
2022/01/21 09:24:41;;;;;;;19.67;3.03;;;3.70;99.90;;;;;;5026905;28;20041;-90
2022/01/21 09:27:07;;;;;;;20.58;3.25;;;3.80;99.90;;;;;;5025500;28;20401;-92
2022/01/21 09:29:34;;;;;;;25.92;3.95;;;3.90;99.90;;;;;;5001379;28;20095;-92
2022/01/21 09:32:08;;;;;;;19.45;3.30;;;3.90;99.90;;;;;;5017162;28;20037;-94
2022/01/21 09:34:34;;;;;;;24.20;3.38;;;4.00;99.90;;;;;;5033397;28;20035;-93
2022/01/21 09:37:04;;;;;;;26.13;3.35;;;4.00;99.90;;;;;;5030113;28;20398;-95
2022/01/21 09:39:33;;;;;;;17.15;3.13;;;4.20;99.90;;;;;;5030336;28;20045;-93
2022/01/21 09:42:01;;;;;;;24.70;3.72;;;4.10;99.90;;;;;;5010264;28;20094;-92
2022/01/21 09:44:29;;;;;;;21.45;4.45;;;4.20;99.90;;;;;;5038386;28;20450;-93
2022/01/21 09:47:00;;;;;;;21.55;3.97;;;4.30;99.90;;;;;;5025343;28;20654;-92
2022/01/21 09:49:27;;;;;;;20.58;3.28;;;4.30;99.90;;;;;;5027770;28;20081;-93
2022/01/21 09:52:04;;;;;;;14.93;3.30;;;4.40;99.90;;;;;;5032601;28;20549;-93
2022/01/21 09:54:37;;;;;;;15.38;2.78;;;4.50;99.90;;;;;;5031886;28;20514;-89
2022/01/21 09:57:06;;;;;;;16.17;3.10;;;4.60;99.90;;;;;;5030207;28;20038;-91
2022/01/21 09:59:35;;;;;;;20.60;3.40;;;4.70;99.90;;;;;;5010390;28;20088;-91
2022/01/21 10:02:05;;;;;;;15.00;2.58;;;4.70;99.90;;;;;;5020847;28;20418;-92
2022/01/21 10:04:34;;;;;;;19.75;3.53;;;4.70;99.90;;;;;;5027832;28;20046;-90
2022/01/21 10:07:01;;;;;;;19.00;3.83;;;4.70;99.90;;;;;;5025814;28;20038;-90
2022/01/21 10:09:27;;;;;;;19.52;3.33;;;4.70;99.90;;;;;;5007823;28;20363;-89
2022/01/21 10:11:54;;;;;;;22.88;3.42;;;4.70;99.90;;;;;;5031138;28;20191;-89
2022/01/21 10:14:23;;;;;;;22.70;3.33;;;4.70;99.90;;;;;;5024000;28;20041;-88
2022/01/21 10:16:49;;;;;;;15.98;3.58;;;4.80;99.90;;;;;;5027857;28;20422;-88
2022/01/21 10:19:23;;;;;;;19.80;3.38;;;3.50;99.90;;;;;;5029900;28;20520;-89
2022/01/21 10:22:18;;;;;;;17.23;3.05;;;4.80;99.90;;;;;;5030311;28;20049;-90
2022/01/21 10:24:57;;;;;;;16.42;3.05;;;4.90;99.90;;;;;;5031183;28;20155;-89
2022/01/21 10:27:28;;;;;;;21.55;3.80;;;4.90;99.90;;;;;;5024434;28;20049;-90
2022/01/21 10:29:55;;;;;;;14.13;2.72;;;5.00;99.90;;;;;;5031413;28;20037;-89
2022/01/21 10:32:41;;;;;;;13.95;3.00;;;5.10;99.90;;;;;;5022695;28;20033;-88
2022/01/21 10:35:31;;;;;;;16.70;2.80;;;5.20;99.90;;;;;;5021958;28;20037;-88
2022/01/21 10:38:17;;;;;;;14.27;2.78;;;5.30;99.90;;;;;;5016965;28;20504;-88
2022/01/21 10:40:43;;;;;;;16.00;2.78;;;5.40;99.90;;;;;;5021932;28;20082;-91
2022/01/21 10:43:15;;;;;;;15.90;2.78;;;5.40;99.90;;;;;;5006535;28;20033;-91
2022/01/21 10:45:57;;;;;;;15.05;3.00;;;6.20;99.90;;;;;;5028140;28;20234;-90
2022/01/21 10:48:24;;;;;;;13.80;2.40;;;5.50;99.90;;;;;;5028673;28;20114;-90
2022/01/21 10:51:24;;;;;;;17.08;3.47;;;5.60;99.90;;;;;;5023826;28;20076;-90
2022/01/21 10:53:50;;;;;;;15.32;2.72;;;5.70;99.90;;;;;;5041543;28;20149;-91
2022/01/21 10:56:17;;;;;;;16.77;3.13;;;5.80;99.90;;;;;;5006057;28;20410;-90
2022/01/21 10:58:51;;;;;;;19.80;3.60;;;7.30;99.90;;;;;;5023114;28;20079;-91
2022/01/21 11:01:20;;;;;;;15.60;2.88;;;5.90;99.90;;;;;;5022619;28;20033;-90
2022/01/21 11:04:10;;;;;;;21.35;2.90;;;6.90;99.90;;;;;;5010234;28;20461;-89
2022/01/21 11:06:54;;;;;;;16.35;2.72;;;7.10;99.90;;;;;;5016144;28;20080;-89
2022/01/21 11:09:25;;;;;;;20.38;2.88;;;6.00;99.90;;;;;;5019343;28;20288;-89
2022/01/21 11:12:09;;;;;;;14.45;3.20;;;6.10;99.90;;;;;;5023499;28;20246;-91
2022/01/21 11:14:35;;;;;;;18.33;3.17;;;6.10;99.90;;;;;;5041473;28;20151;-88
2022/01/21 11:17:17;;;;;;;24.58;3.40;;;6.20;99.90;;;;;;4993596;28;20042;-88
2022/01/21 11:20:16;;;;;;;19.70;3.47;;;6.20;99.90;;;;;;5016066;28;20057;-88
2022/01/21 11:22:59;;;;;;;15.02;2.97;;;6.20;99.90;;;;;;5018256;28;20052;-88
2022/01/21 11:25:44;;;;;;;12.48;2.55;;;7.20;99.90;;;;;;5039451;28;20521;-88
2022/01/21 11:28:21;;;;;;;16.02;2.58;;;7.00;99.90;;;;;;5018541;28;20284;-88
2022/01/21 11:30:49;;;;;;;12.48;2.80;;;6.40;99.90;;;;;;5027467;28;20041;-88
2022/01/21 11:33:15;;;;;;;17.73;3.17;;;6.80;99.90;;;;;;5019617;28;20037;-87
2022/01/21 11:35:41;;;;;;;14.32;2.42;;;6.70;99.90;;;;;;5028790;28;20036;-87
2022/01/21 11:38:10;;;;;;;12.27;2.40;;;7.20;99.90;;;;;;5017882;28;20048;-88
2022/01/21 11:40:37;;;;;;;15.00;2.45;;;6.90;99.90;;;;;;5038502;28;20048;-88
2022/01/21 11:43:05;;;;;;;15.30;2.63;;;7.30;99.90;;;;;;5003961;28;20044;-88
2022/01/21 11:45:53;;;;;;;15.95;2.47;;;7.00;99.90;;;;;;5010868;28;20033;-87
2022/01/21 11:50:52;;;;;;;19.60;2.80;;;8.10;99.90;;;;;;5037778;28;20053;-87
2022/01/21 11:53:43;;;;;;;12.65;2.30;;;7.00;99.90;;;;;;5033543;28;20045;-87
2022/01/21 11:56:47;;;;;;;11.90;2.65;;;7.00;99.90;;;;;;5029825;28;20405;-88
2022/01/21 12:00:02;;;;;;;;;;;7.00;99.90;;;;;;5020631;28;20482;-88
2022/01/21 12:02:18;;;;;;;15.77;2.90;;;7.00;99.90;;;;;;5026547;28;20008;-88
2022/01/21 12:04:54;;;;;;;15.48;2.47;;;7.00;99.90;;;;;;5031404;28;20086;-88
2022/01/21 12:07:35;;;;;;;10.77;2.13;;;7.10;99.90;;;;;;5017693;28;20087;-88
2022/01/21 12:10:07;;;;;;;10.82;2.28;;;7.00;99.90;;;;;;5023779;28;20683;-88
2022/01/21 12:12:45;;;;;;;12.68;2.75;;;7.00;99.90;;;;;;5018301;28;20048;-89
2022/01/21 12:15:29;;;;;;;14.77;2.75;;;8.40;99.90;;;;;;5037504;28;20098;-88
2022/01/21 12:18:05;;;;;;;14.20;2.63;;;7.00;99.90;;;;;;5030678;28;20045;-88
2022/01/21 12:20:32;;;;;;;18.83;2.80;;;7.10;99.90;;;;;;5039576;28;20057;-92
2022/01/21 12:23:09;;;;;;;14.90;2.28;;;7.10;99.90;;;;;;5030258;28;20034;-89
2022/01/21 12:25:35;;;;;;;15.38;2.83;;;8.70;99.90;;;;;;5014274;28;20041;-90
2022/01/21 12:28:19;;;;;;;16.20;3.03;;;8.70;99.90;;;;;;5017817;28;20155;-90
2022/01/21 12:30:54;;;;;;;15.57;2.40;;;7.10;99.90;;;;;;5040798;28;20091;-90
2022/01/21 12:33:20;;;;;;;12.15;2.30;;;7.00;99.90;;;;;;5009691;28;20044;-92
2022/01/21 12:35:47;;;;;;;12.93;2.65;;;7.50;99.90;;;;;;5018070;28;20041;-90
2022/01/21 12:41:16;;;;;;;13.35;2.20;;;7.10;99.90;;;;;;5040926;28;20127;-90
2022/01/21 12:43:58;;;;;;;11.73;2.80;;;7.10;99.90;;;;;;5024010;28;20029;-93
2022/01/21 12:46:24;;;;;;;13.25;2.15;;;7.10;99.90;;;;;;5029100;28;20076;-91
2022/01/21 12:48:51;;;;;;;12.02;2.35;;;7.10;99.90;;;;;;5034856;28;20041;-90
2022/01/21 12:56:59;;;;;;;17.42;2.65;;;8.00;99.90;;;;;;5027776;28;20052;-89
2022/01/21 12:59:29;;;;;;;15.32;3.10;;;7.00;99.90;;;;;;5037642;28;20169;-90
2022/01/21 13:02:05;;;;;;;12.68;2.13;;;5.30;99.90;;;;;;5009610;28;20255;-93
2022/01/21 13:04:39;;;;;;;13.70;2.65;;;7.00;99.90;;;;;;5008366;28;20521;-89
2022/01/21 13:07:12;;;;;;;17.48;2.65;;;7.00;99.90;;;;;;5027869;28;20057;-90
2022/01/21 13:09:43;;;;;;;15.88;2.50;;;7.30;99.90;;;;;;5008602;28;20049;-89
2022/01/21 13:12:12;;;;;;;12.27;2.40;;;7.00;99.90;;;;;;5030452;28;20490;-89
2022/01/21 13:14:44;;;;;;;16.70;2.60;;;8.10;99.90;;;;;;5027139;28;20041;-88
2022/01/21 13:17:12;;;;;;;20.30;2.73;;;7.00;99.90;;;;;;5010251;28;20042;-90
2022/01/21 13:19:53;;;;;;;17.15;3.00;;;8.30;99.90;;;;;;5032772;28;20432;-88
2022/01/21 13:22:22;;;;;;;17.63;2.72;;;8.10;99.90;;;;;;5040015;28;20894;-92
2022/01/21 13:25:05;;;;;;;15.50;2.75;;;7.10;99.90;;;;;;5022017;28;20037;-90
2022/01/21 13:27:34;;;;;;;17.00;2.72;;;8.40;99.90;;;;;;5031791;28;20501;-89
2022/01/21 13:30:05;;;;;;;15.32;2.70;;;7.10;99.90;;;;;;5026656;28;20135;-90
2022/01/21 13:32:31;;;;;;;11.73;2.40;;;7.70;99.90;;;;;;5035276;28;20056;-90
2022/01/21 13:35:18;;;;;;;11.18;2.28;;;7.10;99.90;;;;;;5000233;28;20041;-91
2022/01/21 13:38:10;;;;;;;20.95;3.58;;;7.10;99.90;;;;;;5027220;28;20049;-91
2022/01/21 13:40:40;;;;;;;16.08;2.53;;;7.00;99.90;;;;;;5019767;28;20041;-90
2022/01/21 13:43:08;;;;;;;15.50;3.15;;;7.00;99.90;;;;;;5025294;28;20029;-93
2022/01/21 13:45:34;;;;;;;12.15;2.70;;;6.90;99.90;;;;;;5012755;28;20037;-91
2022/01/21 13:48:08;;;;;;;18.23;2.70;;;8.10;99.90;;;;;;5001075;28;20049;-92
2022/01/21 13:50:34;;;;;;;15.10;2.80;;;6.80;99.90;;;;;;5037572;28;20044;-90
2022/01/21 13:53:06;;;;;;;20.02;3.00;;;8.00;99.90;;;;;;5014452;28;20135;-90
2022/01/21 13:55:47;;;;;;;14.63;2.75;;;6.80;99.90;;;;;;5040265;28;20135;-93
2022/01/21 13:58:17;;;;;;;22.63;3.58;;;6.80;99.90;;;;;;5038754;28;20399;-89
2022/01/21 14:00:50;;;;;;;16.35;2.90;;;6.80;99.90;;;;;;5028356;28;20394;-89
2022/01/21 14:03:22;;;;;;;18.33;3.03;;;7.60;99.90;;;;;;5022443;28;20188;-91